createdAt,value
2023-02-15T00:02:02.466Z,-1.20
2023-02-15T00:04:47.732Z,-1.30
2023-02-15T00:07:19.164Z,-1.30
2023-02-15T00:09:49.261Z,-1.30
2023-02-15T00:12:17.260Z,-1.40
2023-02-15T00:14:44.036Z,-1.40
2023-02-15T00:17:10.883Z,-1.40
2023-02-15T00:19:37.739Z,-1.40
2023-02-15T00:22:04.545Z,-1.40
2023-02-15T00:24:31.288Z,-1.50
2023-02-15T00:26:58.169Z,-1.40
2023-02-15T00:29:24.942Z,-1.40
2023-02-15T00:31:53.151Z,-1.40
2023-02-15T00:34:22.643Z,-1.30
2023-02-15T00:36:49.703Z,-1.30
2023-02-15T00:39:17.988Z,-1.30
2023-02-15T00:41:45.885Z,-1.30
2023-02-15T00:44:13.576Z,-1.30
2023-02-15T00:46:40.599Z,-1.20
2023-02-15T00:49:07.411Z,-1.20
2023-02-15T00:51:34.263Z,-1.30
2023-02-15T00:54:01.091Z,-1.30
2023-02-15T00:56:29.426Z,-1.30
2023-02-15T00:58:58.765Z,-1.30
2023-02-15T01:01:26.850Z,-1.30
2023-02-15T01:03:53.912Z,-1.30
2023-02-15T01:06:20.779Z,-1.40
2023-02-15T01:08:47.738Z,-1.40
2023-02-15T01:11:23.348Z,-1.40
2023-02-15T01:13:58.461Z,-1.40
2023-02-15T01:16:27.655Z,-1.40
2023-02-15T01:18:55.728Z,-1.40
2023-02-15T01:21:24.680Z,-1.40
2023-02-15T01:23:51.521Z,-1.40
2023-02-15T01:26:18.833Z,-1.40
2023-02-15T01:28:46.108Z,-1.40
2023-02-15T01:31:16.566Z,-1.40
2023-02-15T01:33:43.966Z,-1.40
2023-02-15T01:36:11.508Z,-1.50
2023-02-15T01:38:38.357Z,-1.40
2023-02-15T01:41:23.619Z,-1.50
2023-02-15T01:43:57.362Z,-1.50
2023-02-15T01:46:52.837Z,-1.40
2023-02-15T01:49:24.837Z,-1.40
2023-02-15T01:51:53.931Z,-1.40
2023-02-15T01:54:26.212Z,-1.40
2023-02-15T01:56:55.126Z,-1.40
2023-02-15T01:59:24.475Z,-1.40
2023-02-15T02:01:57.558Z,-1.40
2023-02-15T02:04:45.190Z,-1.40
2023-02-15T02:07:15.438Z,-1.40
2023-02-15T02:09:42.406Z,-1.40
2023-02-15T02:12:10.400Z,-1.50
2023-02-15T02:14:38.631Z,-1.50
2023-02-15T02:17:14.407Z,-1.50
2023-02-15T02:20:04.755Z,-1.60
2023-02-15T02:23:02.184Z,-1.60
2023-02-15T02:26:00.898Z,-1.60
2023-02-15T02:29:02.437Z,-1.60
2023-02-15T02:31:45.541Z,-1.50
2023-02-15T02:34:31.027Z,-1.50
2023-02-15T02:37:05.133Z,-1.50
2023-02-15T02:39:45.637Z,-1.40
2023-02-15T02:42:21.654Z,-1.40
2023-02-15T02:44:55.375Z,-1.40
2023-02-15T02:47:30.005Z,-1.40
2023-02-15T02:50:04.237Z,-1.40
2023-02-15T02:52:33.973Z,-1.40
2023-02-15T02:55:02.496Z,-1.40
2023-02-15T02:57:31.486Z,-1.40
2023-02-15T03:00:03.762Z,-1.40
2023-02-15T03:02:33.072Z,-1.50
2023-02-15T03:05:07.252Z,-1.50
2023-02-15T03:07:36.910Z,-1.50
2023-02-15T03:10:06.152Z,-1.50
2023-02-15T03:12:36.380Z,-1.60
2023-02-15T03:15:17.065Z,-1.50
2023-02-15T03:17:50.276Z,-1.50
2023-02-15T03:20:30.638Z,-1.50
2023-02-15T03:23:11.099Z,-1.60
2023-02-15T03:25:42.976Z,-1.60
2023-02-15T03:28:16.780Z,-1.60
2023-02-15T03:30:46.963Z,-1.60
2023-02-15T03:33:15.943Z,-1.60
2023-02-15T03:36:05.328Z,-1.60
2023-02-15T03:38:46.021Z,-1.70
2023-02-15T03:41:15.674Z,-1.70
2023-02-15T03:43:57.537Z,-1.70
2023-02-15T03:46:48.215Z,-1.60
2023-02-15T03:49:44.877Z,-1.70
2023-02-15T03:52:14.098Z,-1.60
2023-02-15T03:54:44.573Z,-1.60
2023-02-15T03:57:40.551Z,-1.50
2023-02-15T04:00:39.383Z,-1.60
2023-02-15T04:03:32.239Z,-1.60
2023-02-15T04:05:59.226Z,-1.60
2023-02-15T04:08:46.069Z,-1.60
2023-02-15T04:11:12.774Z,-1.60
2023-02-15T04:13:39.929Z,-1.50
2023-02-15T04:16:07.903Z,-1.50
2023-02-15T04:18:57.572Z,-1.50
2023-02-15T04:21:44.504Z,-1.50
2023-02-15T04:24:30.484Z,-1.60
2023-02-15T04:26:57.797Z,-1.50
2023-02-15T04:29:26.020Z,-1.50
2023-02-15T04:31:54.543Z,-1.60
2023-02-15T04:34:21.952Z,-1.60
2023-02-15T04:36:48.681Z,-1.60
2023-02-15T04:39:16.532Z,-1.60
2023-02-15T04:41:43.665Z,-1.70
2023-02-15T04:44:11.201Z,-1.70
2023-02-15T04:46:38.329Z,-1.70
2023-02-15T04:49:05.079Z,-1.60
2023-02-15T04:51:31.888Z,-1.60
2023-02-15T04:53:58.685Z,-1.60
2023-02-15T04:56:25.456Z,-1.60
2023-02-15T04:58:52.209Z,-1.60
2023-02-15T05:01:19.407Z,-1.70
2023-02-15T05:03:46.164Z,-1.70
2023-02-15T05:06:12.896Z,-1.70
2023-02-15T05:08:39.645Z,-1.70
2023-02-15T05:11:06.406Z,-1.70
2023-02-15T05:13:33.249Z,-1.70
2023-02-15T05:16:00.276Z,-1.70
2023-02-15T05:18:27.388Z,-1.70
2023-02-15T05:20:54.274Z,-1.70
2023-02-15T05:23:21.074Z,-1.70
2023-02-15T05:26:07.880Z,-1.70
2023-02-15T05:28:36.303Z,-1.70
2023-02-15T05:31:13.903Z,-1.70
2023-02-15T05:33:41.543Z,-1.70
2023-02-15T05:36:09.138Z,-1.70
2023-02-15T05:38:42.273Z,-1.70
2023-02-15T05:41:14.694Z,-1.80
2023-02-15T05:43:41.431Z,-1.80
2023-02-15T05:46:08.806Z,-1.70
2023-02-15T05:48:36.030Z,-1.70
2023-02-15T05:51:05.516Z,-1.70
2023-02-15T05:53:34.466Z,-1.70
2023-02-15T05:56:03.363Z,-1.70
2023-02-15T05:58:38.803Z,-1.70
2023-02-15T06:01:13.874Z,-1.70
2023-02-15T06:03:41.438Z,-1.70
2023-02-15T06:06:08.726Z,-1.70
2023-02-15T06:08:36.849Z,-1.70
2023-02-15T06:11:03.709Z,-1.80
2023-02-15T06:13:31.415Z,-1.80
2023-02-15T06:15:58.236Z,-1.90
2023-02-15T06:18:25.219Z,-1.90
2023-02-15T06:20:51.923Z,-1.90
2023-02-15T06:23:18.776Z,-1.90
2023-02-15T06:25:46.801Z,-1.90
2023-02-15T06:28:14.105Z,-1.90
2023-02-15T06:30:40.977Z,-1.80
2023-02-15T06:33:07.793Z,-1.80
2023-02-15T06:35:34.616Z,-2.00
2023-02-15T06:38:01.362Z,-1.90
2023-02-15T06:40:28.073Z,-1.90
2023-02-15T06:42:54.834Z,-1.90
2023-02-15T06:45:21.779Z,-1.90
2023-02-15T06:47:48.505Z,-2.00
2023-02-15T06:50:15.228Z,-2.00
2023-02-15T06:52:42.034Z,-1.90
2023-02-15T06:55:08.843Z,-1.90
2023-02-15T06:57:35.616Z,-2.00
2023-02-15T07:00:02.562Z,-1.90
2023-02-15T07:02:29.905Z,-1.90
2023-02-15T07:04:56.655Z,-1.90
2023-02-15T07:07:23.441Z,-1.90
2023-02-15T07:09:50.212Z,-1.90
2023-02-15T07:12:35.473Z,-1.90
2023-02-15T07:15:02.574Z,-1.90
2023-02-15T07:17:37.103Z,-1.90
2023-02-15T07:20:12.412Z,-1.90
2023-02-15T07:22:39.508Z,-1.90
2023-02-15T07:25:08.616Z,-1.90
2023-02-15T07:27:35.646Z,-1.90
2023-02-15T07:30:03.034Z,-1.90
2023-02-15T07:32:31.232Z,-1.90
2023-02-15T07:34:58.676Z,-1.80
2023-02-15T07:37:25.601Z,-1.80
2023-02-15T07:39:52.464Z,-1.80
2023-02-15T07:42:20.787Z,-1.80
2023-02-15T07:44:47.885Z,-1.80
2023-02-15T07:47:14.717Z,-1.80
2023-02-15T07:49:41.500Z,-1.80
2023-02-15T07:52:08.280Z,-1.80
2023-02-15T07:54:35.019Z,-1.80
2023-02-15T07:57:02.726Z,-1.80
2023-02-15T07:59:29.411Z,-1.80
2023-02-15T08:01:57.526Z,-1.80
2023-02-15T08:04:25.144Z,-1.70
2023-02-15T08:06:55.290Z,-1.60
2023-02-15T08:09:22.596Z,-1.60
2023-02-15T08:11:49.734Z,-1.60
2023-02-15T08:14:21.680Z,-1.50
2023-02-15T08:16:53.445Z,-1.30
2023-02-15T08:19:26.252Z,-1.30
2023-02-15T08:21:58.300Z,-1.20
2023-02-15T08:24:27.114Z,-1.30
2023-02-15T08:26:54.490Z,-1.30
2023-02-15T08:29:23.578Z,-1.40
2023-02-15T08:31:53.632Z,-1.40
2023-02-15T08:34:21.449Z,-1.40
2023-02-15T08:36:48.299Z,-1.40
2023-02-15T08:39:16.039Z,-1.30
2023-02-15T08:41:44.926Z,-1.20
2023-02-15T08:44:12.350Z,-1.20
2023-02-15T08:46:42.495Z,-1.20
2023-02-15T08:49:11.297Z,-1.30
2023-02-15T08:51:39.576Z,-1.30
2023-02-15T08:54:10.384Z,-1.20
2023-02-15T08:56:39.309Z,-1.20
2023-02-15T08:59:07.599Z,-1.20
2023-02-15T09:01:35.785Z,-1.10
2023-02-15T09:04:06.357Z,-1.20
2023-02-15T09:06:33.736Z,-1.00
2023-02-15T09:09:00.564Z,-1.00
2023-02-15T09:11:33.709Z,-1.10
2023-02-15T09:14:05.764Z,-0.90
2023-02-15T09:16:34.656Z,-0.80
2023-02-15T09:19:07.670Z,-0.80
2023-02-15T09:21:36.745Z,-0.60
2023-02-15T09:24:12.112Z,-0.60
2023-02-15T09:26:41.876Z,-0.80
2023-02-15T09:29:10.176Z,-0.60
2023-02-15T09:31:49.786Z,-0.50
2023-02-15T09:34:20.352Z,-0.50
2023-02-15T09:36:48.093Z,-0.60
2023-02-15T09:39:26.758Z,-0.60
2023-02-15T09:41:56.388Z,-0.50
2023-02-15T09:44:38.356Z,-0.60
2023-02-15T09:47:08.770Z,-0.30
2023-02-15T09:50:07.213Z,-0.10
2023-02-15T09:52:58.857Z,0.20
2023-02-15T09:56:03.204Z,0.20
2023-02-15T09:58:54.647Z,0.30
2023-02-15T10:01:33.445Z,0.30
2023-02-15T10:04:16.912Z,0.20
2023-02-15T10:07:03.745Z,0.40
2023-02-15T10:09:54.548Z,0.60
2023-02-15T10:13:01.856Z,0.80
2023-02-15T10:15:53.081Z,0.80
2023-02-15T10:18:38.759Z,0.90
2023-02-15T10:21:30.806Z,0.90
2023-02-15T10:24:15.877Z,1.10
2023-02-15T10:26:46.371Z,1.30
2023-02-15T10:29:39.397Z,1.40
2023-02-15T10:32:25.918Z,1.50
2023-02-15T10:35:04.657Z,1.50
2023-02-15T10:37:56.236Z,1.60
2023-02-15T10:40:48.117Z,1.60
2023-02-15T10:43:26.409Z,1.50
2023-02-15T10:46:25.303Z,1.70
2023-02-15T10:49:01.665Z,1.80
2023-02-15T10:51:46.617Z,1.80
2023-02-15T10:54:43.845Z,1.90
2023-02-15T10:57:41.664Z,1.70
2023-02-15T11:00:23.502Z,2.10
2023-02-15T11:03:24.571Z,2.30
2023-02-15T11:06:03.559Z,2.60
2023-02-15T11:08:35.565Z,2.60
2023-02-15T11:11:10.574Z,2.70
2023-02-15T11:13:44.139Z,2.70
2023-02-15T11:16:37.791Z,2.80
2023-02-15T11:19:17.521Z,2.80
2023-02-15T11:21:50.837Z,2.90
2023-02-15T11:24:23.833Z,3.00
2023-02-15T11:27:13.816Z,3.00
2023-02-15T11:30:03.856Z,3.10
2023-02-15T11:32:39.751Z,3.20
2023-02-15T11:35:12.685Z,3.20
2023-02-15T11:37:42.391Z,3.40
2023-02-15T11:40:33.022Z,3.40
2023-02-15T11:43:14.652Z,3.40
2023-02-15T11:45:44.120Z,3.50
2023-02-15T11:48:13.514Z,3.70
2023-02-15T11:50:41.862Z,3.70
2023-02-15T11:53:18.772Z,3.80
2023-02-15T11:55:47.649Z,3.80
2023-02-15T11:58:55.621Z,3.90
2023-02-15T12:01:25.741Z,4.10
2023-02-15T12:04:26.431Z,4.20
2023-02-15T12:07:03.515Z,4.30
2023-02-15T12:09:39.774Z,4.40
2023-02-15T12:12:24.375Z,4.40
2023-02-15T12:14:53.840Z,4.50
2023-02-15T12:17:30.246Z,4.60
2023-02-15T12:20:01.764Z,4.70
2023-02-15T12:22:33.101Z,4.80
2023-02-15T12:25:03.098Z,5.00
2023-02-15T12:27:33.200Z,5.10
2023-02-15T12:30:03.235Z,5.30
2023-02-15T12:32:35.659Z,5.40
2023-02-15T12:35:15.426Z,5.60
2023-02-15T12:37:57.915Z,5.70
2023-02-15T12:40:31.624Z,5.80
2023-02-15T12:42:58.835Z,5.90
2023-02-15T12:45:31.515Z,5.90
2023-02-15T12:48:13.441Z,5.90
2023-02-15T12:50:42.222Z,6.00
2023-02-15T12:53:21.869Z,6.00
2023-02-15T12:55:58.957Z,6.10
2023-02-15T12:58:28.178Z,6.30
2023-02-15T13:01:10.507Z,6.40
2023-02-15T13:03:47.824Z,6.50
2023-02-15T13:06:14.585Z,6.50
2023-02-15T13:08:49.589Z,6.70
2023-02-15T13:11:31.323Z,6.80
2023-02-15T13:14:03.930Z,6.80
2023-02-15T13:16:37.690Z,6.90
2023-02-15T13:19:17.107Z,7.00
2023-02-15T13:21:49.475Z,7.10
2023-02-15T13:24:19.884Z,7.30
2023-02-15T13:26:48.327Z,7.30
2023-02-15T13:29:34.296Z,7.40
2023-02-15T13:32:31.156Z,7.40
2023-02-15T13:35:06.131Z,7.40
2023-02-15T13:37:45.441Z,7.60
2023-02-15T13:40:27.382Z,7.80
2023-02-15T13:42:59.571Z,7.90
2023-02-15T13:45:55.676Z,8.00
2023-02-15T13:48:51.454Z,8.00
2023-02-15T13:51:27.658Z,8.10
2023-02-15T13:54:10.712Z,8.10
2023-02-15T13:57:07.797Z,8.20
2023-02-15T13:59:46.724Z,8.20
2023-02-15T14:02:16.546Z,8.20
2023-02-15T14:05:23.222Z,8.10
2023-02-15T14:08:12.538Z,8.10
2023-02-15T14:10:51.655Z,8.10
2023-02-15T14:13:40.065Z,8.10
2023-02-15T14:16:13.061Z,8.10
2023-02-15T14:18:39.832Z,8.10
2023-02-15T14:21:22.796Z,8.10
2023-02-15T14:24:22.912Z,8.20
2023-02-15T14:27:09.744Z,8.10
2023-02-15T14:29:47.518Z,8.20
2023-02-15T14:32:21.800Z,8.10
2023-02-15T14:34:56.400Z,8.10
2023-02-15T14:37:45.778Z,8.10
2023-02-15T14:41:02.022Z,8.10
2023-02-15T14:43:47.480Z,8.00
2023-02-15T14:46:23.878Z,8.00
2023-02-15T14:48:57.324Z,8.00
2023-02-15T14:51:57.648Z,7.80
2023-02-15T14:54:24.389Z,7.90
2023-02-15T14:57:03.418Z,7.90
2023-02-15T14:59:36.021Z,7.90
2023-02-15T15:02:08.777Z,7.80
2023-02-15T15:04:43.720Z,7.80
2023-02-15T15:07:13.422Z,7.80
2023-02-15T15:09:43.117Z,7.70
2023-02-15T15:12:23.260Z,7.60
2023-02-15T15:14:51.077Z,7.60
2023-02-15T15:17:38.939Z,7.50
2023-02-15T15:20:14.431Z,7.40
2023-02-15T15:22:43.590Z,7.40
2023-02-15T15:25:31.078Z,7.40
2023-02-15T15:27:57.881Z,7.30
2023-02-15T15:30:24.666Z,7.30
2023-02-15T15:32:57.853Z,7.30
2023-02-15T15:36:03.717Z,7.30
2023-02-15T15:39:04.779Z,7.20
2023-02-15T15:42:06.837Z,7.10
2023-02-15T15:45:01.875Z,7.10
2023-02-15T15:48:07.764Z,7.00
2023-02-15T15:50:35.265Z,7.00
2023-02-15T15:53:04.273Z,6.80
2023-02-15T15:55:33.419Z,6.80
2023-02-15T15:58:09.821Z,6.70
2023-02-15T16:00:45.642Z,6.70
2023-02-15T16:03:26.711Z,6.60
2023-02-15T16:05:56.330Z,6.50
2023-02-15T16:08:41.044Z,6.40
2023-02-15T16:11:30.233Z,6.30
2023-02-15T16:13:57.278Z,6.10
2023-02-15T16:16:29.097Z,6.00
2023-02-15T16:19:01.180Z,5.90
2023-02-15T16:21:35.258Z,5.80
2023-02-15T16:24:23.651Z,5.60
2023-02-15T16:27:34.994Z,5.50
2023-02-15T16:30:20.629Z,5.40
2023-02-15T16:32:47.682Z,5.20
2023-02-15T16:35:17.525Z,5.20
2023-02-15T16:37:44.890Z,5.00
2023-02-15T16:40:33.733Z,4.90
2023-02-15T16:43:09.710Z,4.80
2023-02-15T16:45:39.224Z,4.60
2023-02-15T16:48:15.323Z,4.40
2023-02-15T16:50:52.391Z,4.40
2023-02-15T16:53:25.868Z,4.20
2023-02-15T16:55:56.134Z,4.10
2023-02-15T16:58:28.515Z,4.00
2023-02-15T17:01:00.884Z,3.90
2023-02-15T17:03:28.755Z,3.70
2023-02-15T17:06:00.901Z,3.70
2023-02-15T17:08:30.751Z,3.50
2023-02-15T17:11:00.802Z,3.40
2023-02-15T17:13:28.873Z,3.30
2023-02-15T17:16:02.054Z,3.20
2023-02-15T17:18:34.097Z,3.10
2023-02-15T17:21:11.806Z,3.00
2023-02-15T17:23:45.862Z,2.90
2023-02-15T17:26:25.017Z,2.80
2023-02-15T17:29:21.266Z,2.80
2023-02-15T17:31:51.744Z,2.70
2023-02-15T17:34:42.062Z,2.60
2023-02-15T17:37:25.269Z,2.60
2023-02-15T17:39:52.113Z,2.50
2023-02-15T17:42:18.885Z,2.50
2023-02-15T17:44:45.693Z,2.40
2023-02-15T17:47:27.773Z,2.30
2023-02-15T17:49:54.945Z,2.20
2023-02-15T17:52:21.720Z,2.20
2023-02-15T17:55:06.884Z,2.10
2023-02-15T17:57:33.646Z,2.10
2023-02-15T18:00:18.992Z,2.00
2023-02-15T18:03:05.538Z,1.90
2023-02-15T18:05:51.042Z,1.90
2023-02-15T18:08:39.181Z,1.80
2023-02-15T18:11:24.577Z,1.70
2023-02-15T18:13:51.338Z,1.70
2023-02-15T18:16:24.545Z,1.60
2023-02-15T18:18:52.196Z,1.50
2023-02-15T18:21:20.463Z,1.50
2023-02-15T18:23:47.274Z,1.50
2023-02-15T18:26:22.409Z,1.40
2023-02-15T18:28:50.340Z,1.40
2023-02-15T18:31:19.110Z,1.30
2023-02-15T18:33:49.046Z,1.30
2023-02-15T18:36:28.139Z,1.20
2023-02-15T18:38:58.599Z,1.20
2023-02-15T18:41:25.449Z,1.10
2023-02-15T18:43:53.936Z,1.10
2023-02-15T18:46:21.233Z,1.00
2023-02-15T18:48:48.095Z,1.00
2023-02-15T18:51:23.559Z,0.90
2023-02-15T18:53:53.873Z,0.80
2023-02-15T18:56:23.000Z,0.80
2023-02-15T18:58:49.916Z,0.70
2023-02-15T19:01:19.839Z,0.70
2023-02-15T19:03:51.626Z,0.70
2023-02-15T19:06:24.914Z,0.60
2023-02-15T19:08:53.085Z,0.60
2023-02-15T19:11:23.272Z,0.50
2023-02-15T19:13:52.094Z,0.50
2023-02-15T19:16:27.479Z,0.50
2023-02-15T19:18:54.528Z,0.40
2023-02-15T19:21:21.463Z,0.40
2023-02-15T19:23:58.127Z,0.20
2023-02-15T19:26:36.297Z,0.10
2023-02-15T19:29:13.537Z,0.10
2023-02-15T19:31:40.666Z,0.00
2023-02-15T19:34:15.772Z,-0.10
2023-02-15T19:36:44.847Z,-0.20
2023-02-15T19:39:29.909Z,-0.20
2023-02-15T19:41:56.916Z,-0.20
2023-02-15T19:44:23.738Z,-0.30
2023-02-15T19:46:50.536Z,-0.40
2023-02-15T19:49:17.366Z,-0.40
2023-02-15T19:51:44.320Z,-0.50
2023-02-15T19:54:33.131Z,-0.60
2023-02-15T19:57:00.159Z,-0.60
2023-02-15T19:59:33.012Z,-0.70
2023-02-15T20:02:00.321Z,-0.70
2023-02-15T20:04:27.595Z,-0.80
2023-02-15T20:07:01.191Z,-0.80
2023-02-15T20:09:40.851Z,-0.80
2023-02-15T20:12:29.619Z,-0.80
2023-02-15T20:14:58.184Z,-0.90
2023-02-15T20:17:24.953Z,-0.90
2023-02-15T20:19:51.826Z,-0.90
2023-02-15T20:22:27.401Z,-0.90
2023-02-15T20:24:56.256Z,-0.90
2023-02-15T20:27:24.061Z,-0.90
2023-02-15T20:29:50.942Z,-0.90
2023-02-15T20:32:17.895Z,-0.90
2023-02-15T20:34:44.706Z,-0.90
2023-02-15T20:37:26.340Z,-0.90
2023-02-15T20:39:53.220Z,-0.90
2023-02-15T20:42:19.984Z,-1.00
2023-02-15T20:44:46.901Z,-1.00
2023-02-15T20:47:13.660Z,-1.00
2023-02-15T20:49:40.418Z,-1.10
2023-02-15T20:52:19.646Z,-1.10
2023-02-15T20:54:46.574Z,-1.20
2023-02-15T20:57:13.592Z,-1.20
2023-02-15T20:59:41.288Z,-1.30
2023-02-15T21:02:23.913Z,-1.30
2023-02-15T21:04:51.276Z,-1.40
2023-02-15T21:07:20.522Z,-1.40
2023-02-15T21:09:48.359Z,-1.40
2023-02-15T21:12:17.934Z,-1.50
2023-02-15T21:14:45.321Z,-1.50
2023-02-15T21:17:14.004Z,-1.50
2023-02-15T21:19:41.520Z,-1.60
2023-02-15T21:22:13.423Z,-1.50
2023-02-15T21:24:47.819Z,-1.60
2023-02-15T21:27:15.365Z,-1.60
2023-02-15T21:29:42.234Z,-1.60
2023-02-15T21:32:10.555Z,-1.50
2023-02-15T21:34:37.423Z,-1.50
2023-02-15T21:37:05.229Z,-1.60
2023-02-15T21:39:35.663Z,-1.50
2023-02-15T21:42:21.765Z,-1.60
2023-02-15T21:45:07.302Z,-1.60
2023-02-15T21:47:52.290Z,-1.60
2023-02-15T21:50:39.193Z,-1.60
2023-02-15T21:53:08.618Z,-1.70
2023-02-15T21:55:35.669Z,-1.70
2023-02-15T21:58:02.764Z,-1.70
2023-02-15T22:00:30.754Z,-1.80
2023-02-15T22:02:59.751Z,-1.80
2023-02-15T22:05:33.272Z,-1.70
2023-02-15T22:08:00.512Z,-1.70
2023-02-15T22:10:32.805Z,-1.80
2023-02-15T22:13:03.598Z,-1.80
2023-02-15T22:15:37.679Z,-1.80
2023-02-15T22:18:05.644Z,-1.80
2023-02-15T22:20:32.588Z,-1.90
2023-02-15T22:22:59.311Z,-1.90
2023-02-15T22:25:26.696Z,-1.90
2023-02-15T22:27:54.727Z,-1.80
2023-02-15T22:30:29.089Z,-1.90
2023-02-15T22:32:57.574Z,-1.90
2023-02-15T22:35:32.927Z,-1.90
2023-02-15T22:38:00.313Z,-1.90
2023-02-15T22:40:33.356Z,-1.90
2023-02-15T22:43:02.743Z,-1.80
2023-02-15T22:45:32.552Z,-1.90
2023-02-15T22:48:00.646Z,-1.80
2023-02-15T22:50:30.287Z,-1.80
2023-02-15T22:53:02.066Z,-1.80
2023-02-15T22:55:33.619Z,-1.80
2023-02-15T22:58:01.094Z,-1.80
2023-02-15T23:00:32.474Z,-1.80
2023-02-15T23:02:59.406Z,-1.80
2023-02-15T23:05:29.062Z,-1.80
2023-02-15T23:07:56.372Z,-1.80
2023-02-15T23:10:25.263Z,-1.80
2023-02-15T23:13:18.311Z,-1.80
2023-02-15T23:15:54.462Z,-1.90
2023-02-15T23:18:27.945Z,-1.90
2023-02-15T23:20:56.514Z,-1.90
2023-02-15T23:23:34.743Z,-1.90
2023-02-15T23:26:04.314Z,-1.90
2023-02-15T23:28:35.925Z,-1.90
2023-02-15T23:31:06.387Z,-1.90
2023-02-15T23:33:35.010Z,-2.00
2023-02-15T23:36:01.883Z,-1.90
2023-02-15T23:38:30.726Z,-1.90
2023-02-15T23:41:19.557Z,-1.90
2023-02-15T23:43:50.128Z,-1.90
2023-02-15T23:46:48.404Z,-1.90
2023-02-15T23:49:18.015Z,-2.00
2023-02-15T23:51:46.236Z,-2.00
2023-02-15T23:54:14.603Z,-2.00
2023-02-15T23:56:42.958Z,-2.00
2023-02-15T23:59:19.275Z,-2.10
